createdAt,value
2019-03-06T00:01:44.837Z,8.15
2019-03-06T00:04:12.310Z,7.45
2019-03-06T00:06:39.690Z,8.13
2019-03-06T00:09:07.556Z,8.15
2019-03-06T00:11:35.035Z,8.08
2019-03-06T00:14:02.508Z,7.05
2019-03-06T00:16:29.948Z,7.58
2019-03-06T00:18:57.411Z,7.70
2019-03-06T00:21:25.145Z,7.62
2019-03-06T00:23:52.545Z,7.85
2019-03-06T00:26:19.923Z,7.78
2019-03-06T00:28:47.393Z,7.35
2019-03-06T00:31:14.777Z,8.00
2019-03-06T00:33:42.184Z,7.60
2019-03-06T00:36:11.292Z,7.53
2019-03-06T00:38:38.743Z,7.53
2019-03-06T00:41:07.943Z,7.37
2019-03-06T00:43:35.339Z,8.70
2019-03-06T00:46:04.287Z,7.65
2019-03-06T00:48:31.858Z,7.53
2019-03-06T00:50:59.232Z,7.45
2019-03-06T00:53:26.601Z,7.85
2019-03-06T00:55:54.061Z,7.35
2019-03-06T00:58:21.527Z,8.18
2019-03-06T01:00:48.899Z,8.98
2019-03-06T01:03:16.272Z,8.33
2019-03-06T01:05:43.681Z,7.65
2019-03-06T01:08:11.086Z,8.00
2019-03-06T01:10:38.467Z,7.58
2019-03-06T01:13:05.880Z,7.35
2019-03-06T01:15:33.815Z,7.50
2019-03-06T01:18:01.215Z,7.40
2019-03-06T01:20:28.654Z,7.25
2019-03-06T01:22:56.033Z,7.65
2019-03-06T01:25:23.511Z,8.53
2019-03-06T01:27:50.874Z,8.35
2019-03-06T01:30:18.996Z,9.00
2019-03-06T01:32:48.034Z,8.35
2019-03-06T01:35:17.112Z,8.63
2019-03-06T01:37:46.312Z,7.75
2019-03-06T01:40:21.174Z,7.78
2019-03-06T01:42:53.198Z,8.25
2019-03-06T01:45:20.860Z,8.20
2019-03-06T01:47:48.271Z,9.28
2019-03-06T01:50:15.661Z,8.98
2019-03-06T01:52:43.568Z,7.85
2019-03-06T01:55:11.934Z,9.20
2019-03-06T01:57:39.394Z,8.50
2019-03-06T02:00:08.341Z,8.78
2019-03-06T02:02:35.723Z,9.28
2019-03-06T02:05:03.148Z,8.68
2019-03-06T02:07:30.578Z,8.73
2019-03-06T02:09:59.101Z,8.58
2019-03-06T02:12:26.545Z,9.35
2019-03-06T02:14:54.005Z,8.85
2019-03-06T02:17:21.394Z,8.65
2019-03-06T02:19:49.080Z,8.68
2019-03-06T02:22:17.718Z,9.45
2019-03-06T02:24:45.086Z,8.85
2019-03-06T02:27:12.483Z,9.30
2019-03-06T02:29:40.834Z,9.25
2019-03-06T02:32:08.212Z,9.15
2019-03-06T02:34:35.585Z,8.95
2019-03-06T02:37:03.069Z,9.68
2019-03-06T02:39:30.534Z,10.18
2019-03-06T02:41:57.918Z,9.75
2019-03-06T02:44:25.409Z,10.20
2019-03-06T02:46:52.873Z,9.80
2019-03-06T02:49:20.348Z,10.58
2019-03-06T02:51:47.801Z,10.40
2019-03-06T02:54:15.239Z,10.68
2019-03-06T02:56:42.619Z,9.48
2019-03-06T02:59:11.759Z,9.95
2019-03-06T03:01:49.633Z,10.88
2019-03-06T03:04:18.668Z,9.75
2019-03-06T03:06:50.841Z,9.85
2019-03-06T03:09:18.675Z,9.80
2019-03-06T03:11:46.151Z,10.65
2019-03-06T03:14:13.596Z,9.58
2019-03-06T03:16:41.157Z,9.60
2019-03-06T03:19:08.615Z,10.85
2019-03-06T03:21:36.006Z,9.23
2019-03-06T03:24:03.401Z,11.53
2019-03-06T03:26:30.817Z,10.75
2019-03-06T03:28:58.185Z,11.10
2019-03-06T03:31:25.581Z,10.70
2019-03-06T03:33:53.151Z,10.78
2019-03-06T03:36:20.539Z,11.12
2019-03-06T03:38:47.908Z,11.20
2019-03-06T03:41:15.376Z,11.63
2019-03-06T03:43:42.772Z,10.90
2019-03-06T03:46:10.167Z,10.95
2019-03-06T03:48:37.584Z,10.23
2019-03-06T03:51:05.059Z,11.43
2019-03-06T03:53:32.450Z,10.72
2019-03-06T03:55:59.935Z,10.85
2019-03-06T03:58:27.343Z,10.80
2019-03-06T04:00:54.971Z,10.82
2019-03-06T04:03:22.365Z,11.18
2019-03-06T04:05:49.839Z,10.90
2019-03-06T04:08:17.217Z,10.48
2019-03-06T04:10:44.680Z,12.28
2019-03-06T04:13:12.050Z,10.75
2019-03-06T04:15:39.532Z,11.05
2019-03-06T04:18:06.925Z,11.00
2019-03-06T04:20:34.301Z,11.38
2019-03-06T04:23:01.702Z,10.55
2019-03-06T04:25:29.089Z,10.78
2019-03-06T04:27:56.551Z,11.00
2019-03-06T04:30:23.976Z,11.38
2019-03-06T04:32:51.374Z,11.65
2019-03-06T04:35:18.784Z,13.90
2019-03-06T04:37:46.207Z,10.38
2019-03-06T04:40:14.220Z,11.48
2019-03-06T04:42:41.882Z,12.15
2019-03-06T04:45:10.868Z,11.78
2019-03-06T04:47:38.258Z,11.75
2019-03-06T04:50:07.207Z,10.53
2019-03-06T04:52:34.616Z,12.40
2019-03-06T04:55:02.020Z,11.95
2019-03-06T04:57:29.390Z,13.18
2019-03-06T04:59:56.818Z,12.40
2019-03-06T05:02:24.252Z,12.58
2019-03-06T05:04:51.624Z,12.03
2019-03-06T05:07:21.472Z,13.40
2019-03-06T05:09:48.886Z,13.48
2019-03-06T05:12:16.271Z,13.70
2019-03-06T05:14:43.706Z,12.90
2019-03-06T05:17:12.757Z,12.88
2019-03-06T05:19:40.638Z,16.15
2019-03-06T05:22:08.101Z,15.00
2019-03-06T05:24:35.487Z,14.23
2019-03-06T05:27:02.858Z,14.65
2019-03-06T05:29:30.252Z,14.43
2019-03-06T05:32:15.642Z,14.95
2019-03-06T05:34:43.050Z,13.65
2019-03-06T05:37:12.050Z,15.28
2019-03-06T05:39:39.428Z,14.35
2019-03-06T05:42:06.807Z,15.00
2019-03-06T05:44:34.305Z,13.10
2019-03-06T05:47:01.764Z,15.70
2019-03-06T05:49:29.144Z,14.25
2019-03-06T05:51:56.671Z,13.85
2019-03-06T05:54:24.064Z,15.25
2019-03-06T05:56:51.445Z,13.15
2019-03-06T05:59:19.038Z,13.55
2019-03-06T06:01:46.471Z,12.47
2019-03-06T06:04:13.858Z,12.82
2019-03-06T06:06:41.250Z,13.32
2019-03-06T06:09:08.627Z,11.75
2019-03-06T06:11:36.008Z,13.05
2019-03-06T06:14:03.415Z,12.20
2019-03-06T06:16:30.887Z,12.47
2019-03-06T06:18:58.287Z,13.22
2019-03-06T06:21:42.338Z,12.55
2019-03-06T06:24:10.726Z,12.58
2019-03-06T06:26:38.183Z,14.00
2019-03-06T06:29:05.603Z,13.20
2019-03-06T06:31:33.032Z,12.23
2019-03-06T06:34:00.510Z,12.28
2019-03-06T06:36:28.284Z,16.90
2019-03-06T06:38:55.655Z,14.40
2019-03-06T06:41:23.026Z,14.78
2019-03-06T06:43:50.426Z,14.18
2019-03-06T06:46:17.798Z,13.03
2019-03-06T06:48:45.229Z,13.15
2019-03-06T06:51:29.568Z,12.55
2019-03-06T06:54:10.674Z,12.53
2019-03-06T06:56:51.594Z,12.53
2019-03-06T06:59:20.531Z,12.50
2019-03-06T07:02:05.570Z,12.70
2019-03-06T07:04:45.449Z,13.88
2019-03-06T07:07:14.466Z,11.90
2019-03-06T07:09:52.678Z,13.48
2019-03-06T07:12:24.760Z,12.03
2019-03-06T07:14:53.875Z,11.28
2019-03-06T07:17:22.903Z,12.13
2019-03-06T07:20:06.946Z,11.95
2019-03-06T07:22:42.044Z,13.22
2019-03-06T07:25:14.041Z,11.30
2019-03-06T07:27:49.436Z,10.88
2019-03-06T07:30:21.255Z,11.40
2019-03-06T07:32:59.229Z,9.80
2019-03-06T07:35:56.577Z,10.90
2019-03-06T07:38:24.441Z,10.78
2019-03-06T07:41:02.681Z,10.63
2019-03-06T07:43:34.547Z,10.82
2019-03-06T07:46:21.809Z,10.63
2019-03-06T07:49:03.082Z,9.98
2019-03-06T07:51:34.812Z,10.13
2019-03-06T07:54:21.337Z,9.78
2019-03-06T07:56:50.471Z,10.98
2019-03-06T07:59:18.249Z,10.72
2019-03-06T08:01:47.292Z,10.05
2019-03-06T08:04:15.057Z,10.48
2019-03-06T08:06:44.195Z,10.23
2019-03-06T08:09:15.965Z,10.68
2019-03-06T08:11:47.867Z,11.43
2019-03-06T08:14:33.169Z,10.88
2019-03-06T08:17:04.991Z,9.90
2019-03-06T08:19:34.040Z,13.15
2019-03-06T08:22:15.097Z,13.03
2019-03-06T08:24:50.115Z,11.03
2019-03-06T08:27:17.526Z,10.00
2019-03-06T08:29:44.930Z,10.20
2019-03-06T08:32:13.966Z,9.98
2019-03-06T08:34:41.404Z,9.78
2019-03-06T08:37:08.867Z,10.00
2019-03-06T08:39:36.259Z,9.43
2019-03-06T08:42:03.667Z,9.90
2019-03-06T08:44:31.087Z,9.60
2019-03-06T08:47:03.325Z,8.60
2019-03-06T08:49:32.414Z,8.98
2019-03-06T08:52:04.209Z,9.75
2019-03-06T08:54:42.033Z,9.68
2019-03-06T08:57:17.076Z,9.83
2019-03-06T08:59:48.804Z,9.70
2019-03-06T09:02:36.145Z,9.78
2019-03-06T09:05:11.576Z,8.60
2019-03-06T09:07:55.653Z,9.90
2019-03-06T09:10:39.879Z,8.40
2019-03-06T09:13:08.939Z,8.97
2019-03-06T09:15:40.955Z,9.13
2019-03-06T09:18:26.737Z,8.60
2019-03-06T09:21:04.943Z,8.10
2019-03-06T09:23:33.985Z,9.03
2019-03-06T09:26:03.031Z,8.40
2019-03-06T09:28:32.056Z,8.73
2019-03-06T09:31:06.789Z,7.93
2019-03-06T09:33:38.254Z,7.53
2019-03-06T09:36:13.614Z,7.50
2019-03-06T09:38:42.913Z,7.43
2019-03-06T09:41:14.701Z,8.20
2019-03-06T09:44:08.722Z,7.10
2019-03-06T09:46:38.025Z,8.60
2019-03-06T09:49:23.523Z,7.67
2019-03-06T09:52:09.048Z,8.10
2019-03-06T09:54:46.955Z,8.17
2019-03-06T09:57:32.709Z,7.73
2019-03-06T10:00:07.875Z,6.87
2019-03-06T10:02:36.914Z,8.47
2019-03-06T10:05:19.132Z,6.07
2019-03-06T10:07:48.139Z,6.67
2019-03-06T10:10:20.269Z,5.50
2019-03-06T10:13:05.809Z,6.33
2019-03-06T10:15:52.965Z,5.80
2019-03-06T10:18:26.829Z,6.90
2019-03-06T10:20:53.911Z,7.60
2019-03-06T10:23:21.327Z,5.90
2019-03-06T10:25:48.787Z,6.13
2019-03-06T10:28:16.187Z,5.90
2019-03-06T10:30:43.641Z,6.90
2019-03-06T10:33:11.122Z,7.00
2019-03-06T10:35:38.667Z,7.07
2019-03-06T10:38:06.127Z,8.63
2019-03-06T10:40:33.598Z,8.60
2019-03-06T10:43:01.262Z,8.93
2019-03-06T10:45:28.708Z,7.93
2019-03-06T10:47:56.377Z,6.63
2019-03-06T10:50:27.355Z,8.30
2019-03-06T10:52:52.915Z,6.83
2019-03-06T10:55:20.568Z,7.07
2019-03-06T10:57:48.221Z,6.50
2019-03-06T11:00:18.495Z,6.67
2019-03-06T11:02:46.381Z,6.27
2019-03-06T11:05:17.196Z,6.77
2019-03-06T11:07:45.121Z,7.40
2019-03-06T11:10:23.303Z,6.00
2019-03-06T11:12:43.063Z,6.57
2019-03-06T11:15:11.611Z,6.27
2019-03-06T11:17:39.306Z,6.30
2019-03-06T11:20:08.601Z,7.27
2019-03-06T11:22:36.111Z,5.83
2019-03-06T11:25:05.095Z,6.37
2019-03-06T11:27:32.569Z,4.63
2019-03-06T11:29:59.975Z,5.00
2019-03-06T11:32:27.733Z,5.27
2019-03-06T11:34:55.302Z,5.53
2019-03-06T11:37:22.933Z,5.50
2019-03-06T11:39:50.367Z,5.03
2019-03-06T11:42:17.785Z,5.20
2019-03-06T11:44:45.319Z,5.60
2019-03-06T11:47:12.804Z,5.40
2019-03-06T11:49:40.251Z,5.30
2019-03-06T11:52:07.651Z,5.03
2019-03-06T11:54:35.154Z,4.83
2019-03-06T11:57:02.611Z,5.37
2019-03-06T11:59:30.107Z,5.73
2019-03-06T12:01:57.593Z,5.33
2019-03-06T12:04:25.226Z,6.07
2019-03-06T12:06:52.999Z,4.63
2019-03-06T12:09:22.013Z,4.33
2019-03-06T12:11:49.462Z,5.17
2019-03-06T12:14:16.863Z,4.90
2019-03-06T12:16:44.371Z,4.97
2019-03-06T12:19:11.835Z,4.50
2019-03-06T12:21:39.335Z,4.30
2019-03-06T12:24:07.057Z,4.80
2019-03-06T12:26:34.521Z,4.83
2019-03-06T12:29:01.972Z,4.60
2019-03-06T12:31:29.459Z,3.80
2019-03-06T12:33:56.932Z,4.23
2019-03-06T12:36:24.397Z,3.63
2019-03-06T12:38:51.900Z,4.57
2019-03-06T12:41:19.346Z,4.13
2019-03-06T12:43:46.778Z,4.53
2019-03-06T12:46:22.886Z,4.30
2019-03-06T12:48:45.030Z,3.83
2019-03-06T12:51:12.504Z,4.40
2019-03-06T12:53:39.980Z,3.60
2019-03-06T12:56:07.496Z,4.03
2019-03-06T12:58:34.976Z,3.40
2019-03-06T13:01:02.503Z,3.87
2019-03-06T13:03:29.984Z,4.43
2019-03-06T13:05:57.493Z,4.30
2019-03-06T13:08:24.966Z,3.10
2019-03-06T13:10:52.665Z,2.97
2019-03-06T13:13:20.103Z,3.37
2019-03-06T13:15:47.634Z,3.40
2019-03-06T13:18:15.744Z,4.27
2019-03-06T13:20:43.215Z,3.57
2019-03-06T13:23:10.759Z,3.17
2019-03-06T13:25:38.212Z,3.30
2019-03-06T13:28:06.020Z,3.07
2019-03-06T13:30:34.404Z,3.20
2019-03-06T13:33:13.789Z,3.10
2019-03-06T13:35:41.458Z,4.10
2019-03-06T13:38:08.923Z,3.13
2019-03-06T13:40:36.404Z,3.53
2019-03-06T13:43:04.132Z,3.60
2019-03-06T13:45:31.610Z,3.07
2019-03-06T13:47:59.072Z,3.67
2019-03-06T13:50:26.839Z,3.90
2019-03-06T13:52:54.364Z,2.90
2019-03-06T13:55:21.822Z,3.40
2019-03-06T13:57:49.354Z,3.13
2019-03-06T14:00:18.274Z,3.37
2019-03-06T14:02:46.514Z,3.20
2019-03-06T14:05:14.564Z,3.27
2019-03-06T14:07:41.957Z,2.87
2019-03-06T14:10:10.047Z,2.80
2019-03-06T14:12:37.560Z,3.20
2019-03-06T14:15:06.422Z,3.33
2019-03-06T14:17:33.846Z,3.57
2019-03-06T14:20:01.245Z,3.20
2019-03-06T14:22:28.736Z,2.90
2019-03-06T14:24:56.198Z,2.43
2019-03-06T14:27:23.640Z,2.87
2019-03-06T14:29:51.197Z,4.00
2019-03-06T14:32:19.724Z,3.20
2019-03-06T14:34:47.107Z,3.40
2019-03-06T14:37:14.602Z,3.53
2019-03-06T14:39:41.972Z,3.50
2019-03-06T14:42:09.607Z,3.20
2019-03-06T14:44:37.166Z,4.20
2019-03-06T14:47:04.655Z,4.37
2019-03-06T14:49:32.398Z,3.50
2019-03-06T14:52:06.907Z,4.20
2019-03-06T14:54:29.273Z,3.63
2019-03-06T14:56:56.764Z,3.70
2019-03-06T14:59:24.210Z,4.03
2019-03-06T15:01:51.587Z,7.93
2019-03-06T15:04:19.114Z,3.97
2019-03-06T15:06:46.686Z,4.37
2019-03-06T15:09:19.257Z,4.00
2019-03-06T15:11:46.728Z,3.40
2019-03-06T15:14:14.175Z,3.23
2019-03-06T15:16:41.637Z,4.90
2019-03-06T15:19:09.122Z,3.97
2019-03-06T15:21:36.707Z,4.60
2019-03-06T15:24:04.859Z,3.87
2019-03-06T15:26:32.229Z,4.20
2019-03-06T15:28:59.626Z,3.50
2019-03-06T15:31:27.016Z,4.00
2019-03-06T15:33:54.398Z,3.27
2019-03-06T15:36:21.892Z,3.90
2019-03-06T15:38:49.424Z,4.50
2019-03-06T15:41:16.871Z,4.60
2019-03-06T15:43:45.529Z,4.83
2019-03-06T15:46:14.558Z,4.30
2019-03-06T15:48:42.009Z,4.20
2019-03-06T15:51:09.399Z,3.90
2019-03-06T15:53:36.951Z,4.47
2019-03-06T15:56:04.423Z,4.40
2019-03-06T15:58:31.949Z,4.07
2019-03-06T16:01:00.473Z,4.07
2019-03-06T16:03:27.919Z,4.43
2019-03-06T16:05:55.376Z,4.23
2019-03-06T16:08:23.083Z,4.67
2019-03-06T16:10:50.568Z,4.83
2019-03-06T16:13:18.199Z,4.90
2019-03-06T16:15:45.631Z,5.17
2019-03-06T16:18:13.096Z,4.53
2019-03-06T16:20:40.564Z,5.10
2019-03-06T16:23:08.063Z,6.20
2019-03-06T16:25:38.008Z,4.97
2019-03-06T16:28:05.111Z,6.30
2019-03-06T16:30:32.475Z,6.37
2019-03-06T16:32:59.869Z,6.37
2019-03-06T16:35:28.969Z,5.73
2019-03-06T16:37:56.460Z,6.73
2019-03-06T16:40:24.422Z,5.80
2019-03-06T16:42:52.240Z,6.67
2019-03-06T16:45:27.199Z,7.87
2019-03-06T16:47:54.821Z,6.67
2019-03-06T16:50:23.054Z,6.90
2019-03-06T16:52:50.779Z,7.77
2019-03-06T16:55:19.229Z,15.00
2019-03-06T16:57:47.251Z,7.17
2019-03-06T17:00:21.962Z,7.70
2019-03-06T17:02:49.440Z,8.00
2019-03-06T17:05:18.269Z,7.07
2019-03-06T17:07:45.741Z,8.00
2019-03-06T17:10:13.402Z,7.70
2019-03-06T17:12:41.026Z,6.93
2019-03-06T17:15:09.184Z,7.30
2019-03-06T17:17:36.628Z,8.20
2019-03-06T17:20:04.779Z,7.97
2019-03-06T17:22:32.236Z,7.97
2019-03-06T17:24:59.619Z,8.70
2019-03-06T17:27:27.091Z,8.13
2019-03-06T17:29:54.745Z,7.23
2019-03-06T17:32:22.248Z,8.20
2019-03-06T17:34:49.769Z,8.20
2019-03-06T17:37:17.220Z,8.13
2019-03-06T17:39:44.776Z,7.30
2019-03-06T17:42:12.435Z,7.27
2019-03-06T17:44:39.987Z,9.03
2019-03-06T17:47:07.462Z,7.10
2019-03-06T17:49:35.084Z,7.97
2019-03-06T17:52:02.672Z,7.50
2019-03-06T17:54:30.771Z,7.53
2019-03-06T17:56:58.250Z,8.13
2019-03-06T17:59:25.931Z,8.30
2019-03-06T18:01:53.387Z,9.23
2019-03-06T18:04:20.873Z,10.47
2019-03-06T18:06:48.335Z,9.80
2019-03-06T18:09:15.824Z,8.30
2019-03-06T18:11:43.302Z,9.87
2019-03-06T18:14:10.690Z,8.47
2019-03-06T18:16:38.338Z,8.47
2019-03-06T18:19:05.728Z,8.03
2019-03-06T18:21:33.124Z,7.10
2019-03-06T18:24:00.490Z,6.10
2019-03-06T18:26:27.958Z,6.83
2019-03-06T18:28:55.419Z,7.20
2019-03-06T18:31:22.875Z,6.73
2019-03-06T18:33:50.433Z,6.67
2019-03-06T18:36:17.832Z,13.13
2019-03-06T18:38:45.286Z,7.20
2019-03-06T18:41:12.761Z,6.47
2019-03-06T18:43:41.302Z,6.80
2019-03-06T18:46:08.753Z,7.57
2019-03-06T18:48:36.221Z,7.30
2019-03-06T18:51:03.868Z,7.07
2019-03-06T18:53:31.320Z,5.87
2019-03-06T18:55:58.801Z,5.90
2019-03-06T18:58:26.231Z,5.23
2019-03-06T19:00:53.730Z,5.70
2019-03-06T19:03:21.232Z,5.37
2019-03-06T19:05:48.713Z,5.73
2019-03-06T19:08:16.495Z,6.27
2019-03-06T19:10:43.874Z,5.40
2019-03-06T19:13:12.477Z,5.23
2019-03-06T19:15:40.135Z,5.53
2019-03-06T19:18:07.605Z,5.33
2019-03-06T19:20:36.597Z,6.40
2019-03-06T19:23:03.989Z,4.97
2019-03-06T19:25:31.745Z,5.37
2019-03-06T19:27:59.126Z,5.10
2019-03-06T19:30:26.974Z,5.33
2019-03-06T19:32:54.432Z,4.60
2019-03-06T19:35:22.747Z,4.70
2019-03-06T19:37:50.255Z,4.83
2019-03-06T19:40:18.193Z,4.37
2019-03-06T19:42:45.976Z,4.97
2019-03-06T19:45:14.830Z,5.83
2019-03-06T19:47:42.316Z,4.73
2019-03-06T19:50:11.280Z,5.07
2019-03-06T19:52:38.938Z,4.80
2019-03-06T19:55:07.165Z,7.97
2019-03-06T19:57:41.892Z,4.13
2019-03-06T20:00:09.824Z,5.03
2019-03-06T20:02:37.305Z,5.50
2019-03-06T20:05:05.044Z,4.87
2019-03-06T20:07:32.490Z,5.83
2019-03-06T20:10:12.847Z,4.70
2019-03-06T20:12:40.438Z,4.50
2019-03-06T20:15:09.477Z,5.93
2019-03-06T20:17:36.924Z,4.70
2019-03-06T20:20:05.745Z,5.20
2019-03-06T20:22:34.280Z,4.73
2019-03-06T20:25:01.736Z,5.00
2019-03-06T20:27:29.200Z,5.00
2019-03-06T20:29:56.678Z,4.43
2019-03-06T20:32:24.113Z,4.47
2019-03-06T20:34:51.615Z,4.47
2019-03-06T20:37:19.045Z,4.63
2019-03-06T20:39:46.518Z,5.13
2019-03-06T20:42:13.913Z,5.77
2019-03-06T20:44:41.375Z,5.00
2019-03-06T20:47:09.152Z,4.23
2019-03-06T20:49:36.600Z,5.27
2019-03-06T20:52:04.154Z,4.63
2019-03-06T20:54:31.567Z,4.90
2019-03-06T20:56:59.029Z,4.60
2019-03-06T20:59:26.493Z,4.57
2019-03-06T21:01:53.917Z,4.87
2019-03-06T21:04:21.371Z,5.43
2019-03-06T21:06:49.035Z,4.23
2019-03-06T21:09:17.153Z,4.60
2019-03-06T21:11:44.905Z,4.53
2019-03-06T21:14:12.352Z,5.10
2019-03-06T21:16:39.837Z,5.00
2019-03-06T21:19:07.276Z,4.43
2019-03-06T21:21:34.720Z,5.10
2019-03-06T21:24:02.227Z,5.43
2019-03-06T21:26:29.671Z,4.63
2019-03-06T21:28:57.247Z,4.17
2019-03-06T21:31:24.759Z,4.30
2019-03-06T21:33:53.682Z,5.07
2019-03-06T21:36:21.258Z,5.13
2019-03-06T21:38:48.663Z,4.50
2019-03-06T21:41:16.163Z,5.40
2019-03-06T21:43:43.586Z,4.50
2019-03-06T21:46:11.052Z,5.20
2019-03-06T21:48:38.499Z,4.67
2019-03-06T21:51:05.901Z,4.50
2019-03-06T21:53:33.381Z,5.33
2019-03-06T21:56:00.841Z,4.80
2019-03-06T21:58:29.638Z,4.70
2019-03-06T22:00:57.185Z,4.90
2019-03-06T22:03:24.855Z,5.17
2019-03-06T22:05:55.576Z,4.40
2019-03-06T22:08:23.067Z,4.97
2019-03-06T22:10:50.502Z,4.77
2019-03-06T22:13:17.974Z,4.43
2019-03-06T22:15:45.423Z,4.90
2019-03-06T22:18:13.467Z,4.87
2019-03-06T22:20:41.225Z,4.27
2019-03-06T22:23:08.687Z,4.60
2019-03-06T22:25:36.064Z,4.43
2019-03-06T22:28:03.497Z,5.07
2019-03-06T22:30:30.985Z,4.30
2019-03-06T22:32:59.635Z,4.60
2019-03-06T22:35:27.200Z,4.80
2019-03-06T22:37:54.784Z,4.93
2019-03-06T22:40:23.037Z,4.33
2019-03-06T22:42:50.469Z,4.37
2019-03-06T22:45:18.617Z,5.00
2019-03-06T22:47:46.112Z,5.90
2019-03-06T22:50:15.096Z,5.17
2019-03-06T22:52:42.587Z,4.17
2019-03-06T22:55:11.331Z,4.90
2019-03-06T22:57:38.721Z,5.60
2019-03-06T23:00:16.819Z,4.80
2019-03-06T23:02:44.189Z,4.60
2019-03-06T23:05:11.641Z,5.67
2019-03-06T23:07:39.304Z,5.30
2019-03-06T23:10:06.742Z,5.37
2019-03-06T23:12:34.153Z,6.03
2019-03-06T23:15:01.595Z,5.33
2019-03-06T23:17:29.057Z,5.30
2019-03-06T23:19:56.537Z,4.73
2019-03-06T23:22:25.056Z,5.17
2019-03-06T23:24:52.508Z,4.20
2019-03-06T23:27:19.974Z,5.33
2019-03-06T23:29:47.458Z,4.77
2019-03-06T23:32:14.939Z,4.43
2019-03-06T23:34:42.385Z,5.27
2019-03-06T23:37:09.770Z,4.60
2019-03-06T23:39:37.541Z,4.57
2019-03-06T23:42:05.663Z,5.40
2019-03-06T23:44:33.111Z,5.30
2019-03-06T23:47:00.499Z,5.50
2019-03-06T23:49:27.981Z,5.30
2019-03-06T23:51:56.409Z,5.30
2019-03-06T23:54:23.861Z,5.07
2019-03-06T23:56:51.230Z,4.97
2019-03-06T23:59:18.698Z,5.27
